sensor_id;sensor_type;location;lat;lon;timestamp;P1;durP1;ratioP1;P2;durP2;ratioP2
24859;SDS011;12936;52.006;4.350;2022-12-29T00:01:18;5.83;;;1.80;;
24859;SDS011;12936;52.006;4.350;2022-12-29T00:03:46;2.83;;;1.90;;
24859;SDS011;12936;52.006;4.350;2022-12-29T00:06:16;2.23;;;1.93;;
24859;SDS011;12936;52.006;4.350;2022-12-29T00:08:44;3.60;;;2.07;;
24859;SDS011;12936;52.006;4.350;2022-12-29T00:11:13;2.87;;;1.43;;
24859;SDS011;12936;52.006;4.350;2022-12-29T00:13:42;3.60;;;2.00;;
24859;SDS011;12936;52.006;4.350;2022-12-29T00:16:31;3.30;;;2.00;;
24859;SDS011;12936;52.006;4.350;2022-12-29T00:19:00;3.47;;;1.90;;
24859;SDS011;12936;52.006;4.350;2022-12-29T00:21:30;4.27;;;2.00;;
24859;SDS011;12936;52.006;4.350;2022-12-29T00:24:18;4.57;;;1.93;;
24859;SDS011;12936;52.006;4.350;2022-12-29T00:27:09;3.10;;;1.70;;
24859;SDS011;12936;52.006;4.350;2022-12-29T00:29:56;5.27;;;2.40;;
24859;SDS011;12936;52.006;4.350;2022-12-29T00:32:43;4.10;;;1.57;;
24859;SDS011;12936;52.006;4.350;2022-12-29T00:35:29;2.73;;;1.27;;
24859;SDS011;12936;52.006;4.350;2022-12-29T00:38:02;4.53;;;1.80;;
24859;SDS011;12936;52.006;4.350;2022-12-29T00:40:51;8.67;;;2.10;;
24859;SDS011;12936;52.006;4.350;2022-12-29T00:43:36;2.50;;;1.63;;
24859;SDS011;12936;52.006;4.350;2022-12-29T00:46:22;4.67;;;1.63;;
24859;SDS011;12936;52.006;4.350;2022-12-29T00:48:50;5.77;;;1.90;;
24859;SDS011;12936;52.006;4.350;2022-12-29T00:51:35;3.90;;;1.20;;
24859;SDS011;12936;52.006;4.350;2022-12-29T00:54:05;7.30;;;2.00;;
24859;SDS011;12936;52.006;4.350;2022-12-29T00:56:33;2.90;;;1.40;;
24859;SDS011;12936;52.006;4.350;2022-12-29T00:59:01;4.77;;;1.80;;
24859;SDS011;12936;52.006;4.350;2022-12-29T01:01:29;1.60;;;1.30;;
24859;SDS011;12936;52.006;4.350;2022-12-29T01:03:58;3.00;;;1.53;;
24859;SDS011;12936;52.006;4.350;2022-12-29T01:06:29;2.20;;;1.43;;
24859;SDS011;12936;52.006;4.350;2022-12-29T01:08:58;3.07;;;1.50;;
24859;SDS011;12936;52.006;4.350;2022-12-29T01:11:45;2.57;;;1.30;;
24859;SDS011;12936;52.006;4.350;2022-12-29T01:14:13;4.87;;;1.73;;
24859;SDS011;12936;52.006;4.350;2022-12-29T01:16:43;4.03;;;1.97;;
24859;SDS011;12936;52.006;4.350;2022-12-29T01:19:11;3.80;;;1.63;;
24859;SDS011;12936;52.006;4.350;2022-12-29T01:21:39;2.40;;;1.50;;
24859;SDS011;12936;52.006;4.350;2022-12-29T01:24:07;4.50;;;1.40;;
24859;SDS011;12936;52.006;4.350;2022-12-29T01:26:35;3.90;;;1.33;;
24859;SDS011;12936;52.006;4.350;2022-12-29T01:29:05;3.57;;;1.60;;
24859;SDS011;12936;52.006;4.350;2022-12-29T01:31:33;6.83;;;1.53;;
24859;SDS011;12936;52.006;4.350;2022-12-29T01:34:01;2.77;;;1.23;;
24859;SDS011;12936;52.006;4.350;2022-12-29T01:36:29;3.90;;;1.50;;
24859;SDS011;12936;52.006;4.350;2022-12-29T01:38:57;1.83;;;1.30;;
24859;SDS011;12936;52.006;4.350;2022-12-29T01:41:26;3.83;;;1.10;;
24859;SDS011;12936;52.006;4.350;2022-12-29T01:43:54;3.90;;;1.20;;
24859;SDS011;12936;52.006;4.350;2022-12-29T01:46:27;4.40;;;1.30;;
24859;SDS011;12936;52.006;4.350;2022-12-29T01:48:59;3.00;;;1.10;;
24859;SDS011;12936;52.006;4.350;2022-12-29T01:51:38;3.10;;;1.03;;
24859;SDS011;12936;52.006;4.350;2022-12-29T01:54:11;5.40;;;1.00;;
24859;SDS011;12936;52.006;4.350;2022-12-29T01:56:43;6.70;;;1.13;;
24859;SDS011;12936;52.006;4.350;2022-12-29T01:59:12;6.10;;;0.93;;
24859;SDS011;12936;52.006;4.350;2022-12-29T02:01:45;5.40;;;1.27;;
24859;SDS011;12936;52.006;4.350;2022-12-29T02:04:13;4.83;;;1.00;;
24859;SDS011;12936;52.006;4.350;2022-12-29T02:06:43;6.90;;;1.17;;
24859;SDS011;12936;52.006;4.350;2022-12-29T02:09:17;4.67;;;0.90;;
24859;SDS011;12936;52.006;4.350;2022-12-29T02:11:45;6.93;;;1.20;;
24859;SDS011;12936;52.006;4.350;2022-12-29T02:14:14;10.90;;;1.43;;
24859;SDS011;12936;52.006;4.350;2022-12-29T02:16:49;5.43;;;1.07;;
24859;SDS011;12936;52.006;4.350;2022-12-29T02:19:41;7.03;;;1.70;;
24859;SDS011;12936;52.006;4.350;2022-12-29T02:22:27;8.23;;;1.67;;
24859;SDS011;12936;52.006;4.350;2022-12-29T02:31:13;8.13;;;1.67;;
24859;SDS011;12936;52.006;4.350;2022-12-29T02:33:51;6.33;;;0.97;;
24859;SDS011;12936;52.006;4.350;2022-12-29T02:36:29;3.80;;;0.87;;
24859;SDS011;12936;52.006;4.350;2022-12-29T02:39:08;7.97;;;0.93;;
24859;SDS011;12936;52.006;4.350;2022-12-29T02:41:46;8.77;;;1.53;;
24859;SDS011;12936;52.006;4.350;2022-12-29T02:44:25;12.17;;;1.37;;
24859;SDS011;12936;52.006;4.350;2022-12-29T02:47:04;13.50;;;1.50;;
24859;SDS011;12936;52.006;4.350;2022-12-29T02:49:38;10.07;;;1.60;;
24859;SDS011;12936;52.006;4.350;2022-12-29T02:52:14;9.97;;;2.10;;
24859;SDS011;12936;52.006;4.350;2022-12-29T02:54:47;12.20;;;1.40;;
24859;SDS011;12936;52.006;4.350;2022-12-29T02:57:28;15.23;;;2.43;;
24859;SDS011;12936;52.006;4.350;2022-12-29T03:00:00;10.20;;;1.67;;
24859;SDS011;12936;52.006;4.350;2022-12-29T03:02:36;14.43;;;1.70;;
24859;SDS011;12936;52.006;4.350;2022-12-29T03:05:17;15.17;;;2.20;;
24859;SDS011;12936;52.006;4.350;2022-12-29T03:07:52;10.23;;;1.77;;
24859;SDS011;12936;52.006;4.350;2022-12-29T03:10:29;17.10;;;2.27;;
24859;SDS011;12936;52.006;4.350;2022-12-29T03:13:04;10.43;;;1.73;;
24859;SDS011;12936;52.006;4.350;2022-12-29T03:16:00;14.33;;;1.97;;
24859;SDS011;12936;52.006;4.350;2022-12-29T03:18:42;13.57;;;2.00;;
24859;SDS011;12936;52.006;4.350;2022-12-29T03:21:17;10.90;;;1.40;;
24859;SDS011;12936;52.006;4.350;2022-12-29T03:24:12;14.63;;;1.70;;
24859;SDS011;12936;52.006;4.350;2022-12-29T03:26:43;9.50;;;1.60;;
24859;SDS011;12936;52.006;4.350;2022-12-29T03:29:14;15.80;;;1.70;;
24859;SDS011;12936;52.006;4.350;2022-12-29T03:31:44;9.80;;;1.60;;
24859;SDS011;12936;52.006;4.350;2022-12-29T03:34:15;15.53;;;2.00;;
24859;SDS011;12936;52.006;4.350;2022-12-29T03:36:47;10.97;;;1.77;;
24859;SDS011;12936;52.006;4.350;2022-12-29T03:39:20;8.50;;;1.43;;
24859;SDS011;12936;52.006;4.350;2022-12-29T03:41:51;10.77;;;1.90;;
24859;SDS011;12936;52.006;4.350;2022-12-29T03:44:31;9.57;;;1.53;;
24859;SDS011;12936;52.006;4.350;2022-12-29T03:47:00;10.43;;;1.60;;
24859;SDS011;12936;52.006;4.350;2022-12-29T03:49:29;7.80;;;1.87;;
24859;SDS011;12936;52.006;4.350;2022-12-29T03:51:57;13.23;;;1.37;;
24859;SDS011;12936;52.006;4.350;2022-12-29T03:54:25;8.30;;;1.53;;
24859;SDS011;12936;52.006;4.350;2022-12-29T03:56:54;11.10;;;1.60;;
24859;SDS011;12936;52.006;4.350;2022-12-29T03:59:22;12.73;;;1.60;;
24859;SDS011;12936;52.006;4.350;2022-12-29T04:01:50;9.03;;;1.47;;
24859;SDS011;12936;52.006;4.350;2022-12-29T04:04:18;19.03;;;2.40;;
24859;SDS011;12936;52.006;4.350;2022-12-29T04:06:47;12.77;;;2.47;;
24859;SDS011;12936;52.006;4.350;2022-12-29T04:09:15;15.30;;;1.93;;
24859;SDS011;12936;52.006;4.350;2022-12-29T04:11:43;12.87;;;2.10;;
24859;SDS011;12936;52.006;4.350;2022-12-29T04:14:12;23.20;;;2.67;;
24859;SDS011;12936;52.006;4.350;2022-12-29T04:16:40;14.53;;;2.47;;
24859;SDS011;12936;52.006;4.350;2022-12-29T04:19:08;18.97;;;2.73;;
24859;SDS011;12936;52.006;4.350;2022-12-29T04:21:36;19.40;;;2.63;;
24859;SDS011;12936;52.006;4.350;2022-12-29T04:24:05;7.60;;;1.37;;
24859;SDS011;12936;52.006;4.350;2022-12-29T04:26:34;15.03;;;2.50;;
24859;SDS011;12936;52.006;4.350;2022-12-29T04:29:02;12.97;;;1.77;;
24859;SDS011;12936;52.006;4.350;2022-12-29T04:31:30;22.20;;;2.40;;
24859;SDS011;12936;52.006;4.350;2022-12-29T04:33:59;18.67;;;1.93;;
24859;SDS011;12936;52.006;4.350;2022-12-29T04:36:27;15.07;;;1.60;;
24859;SDS011;12936;52.006;4.350;2022-12-29T04:38:55;18.50;;;2.30;;
24859;SDS011;12936;52.006;4.350;2022-12-29T04:41:25;14.03;;;1.80;;
24859;SDS011;12936;52.006;4.350;2022-12-29T04:43:53;13.20;;;1.73;;
24859;SDS011;12936;52.006;4.350;2022-12-29T04:46:21;9.33;;;1.67;;
24859;SDS011;12936;52.006;4.350;2022-12-29T04:48:49;11.20;;;1.67;;
24859;SDS011;12936;52.006;4.350;2022-12-29T04:51:17;14.33;;;1.57;;
24859;SDS011;12936;52.006;4.350;2022-12-29T04:53:45;8.00;;;1.43;;
24859;SDS011;12936;52.006;4.350;2022-12-29T04:56:13;16.27;;;2.50;;
24859;SDS011;12936;52.006;4.350;2022-12-29T04:58:44;12.40;;;1.93;;
24859;SDS011;12936;52.006;4.350;2022-12-29T05:01:13;12.53;;;1.87;;
24859;SDS011;12936;52.006;4.350;2022-12-29T05:03:41;21.27;;;1.90;;
24859;SDS011;12936;52.006;4.350;2022-12-29T05:06:09;14.73;;;2.30;;
24859;SDS011;12936;52.006;4.350;2022-12-29T05:08:37;14.40;;;2.77;;
24859;SDS011;12936;52.006;4.350;2022-12-29T05:11:05;17.07;;;2.57;;
24859;SDS011;12936;52.006;4.350;2022-12-29T05:13:33;19.10;;;2.43;;
24859;SDS011;12936;52.006;4.350;2022-12-29T05:16:03;15.77;;;1.77;;
24859;SDS011;12936;52.006;4.350;2022-12-29T05:18:31;14.43;;;2.33;;
24859;SDS011;12936;52.006;4.350;2022-12-29T05:20:59;18.27;;;2.37;;
24859;SDS011;12936;52.006;4.350;2022-12-29T05:23:27;12.60;;;1.90;;
24859;SDS011;12936;52.006;4.350;2022-12-29T05:25:55;19.30;;;2.30;;
24859;SDS011;12936;52.006;4.350;2022-12-29T05:28:23;17.70;;;2.13;;
24859;SDS011;12936;52.006;4.350;2022-12-29T05:30:51;15.80;;;2.53;;
24859;SDS011;12936;52.006;4.350;2022-12-29T05:33:20;7.50;;;1.83;;
24859;SDS011;12936;52.006;4.350;2022-12-29T05:35:48;15.63;;;2.00;;
24859;SDS011;12936;52.006;4.350;2022-12-29T05:38:16;16.17;;;1.83;;
24859;SDS011;12936;52.006;4.350;2022-12-29T05:40:44;27.03;;;3.40;;
24859;SDS011;12936;52.006;4.350;2022-12-29T05:43:12;13.57;;;3.17;;
24859;SDS011;12936;52.006;4.350;2022-12-29T05:45:40;17.90;;;2.33;;
24859;SDS011;12936;52.006;4.350;2022-12-29T05:48:08;21.20;;;2.90;;
24859;SDS011;12936;52.006;4.350;2022-12-29T05:50:38;20.13;;;2.93;;
24859;SDS011;12936;52.006;4.350;2022-12-29T05:53:05;20.13;;;3.13;;
24859;SDS011;12936;52.006;4.350;2022-12-29T05:55:34;17.53;;;2.53;;
24859;SDS011;12936;52.006;4.350;2022-12-29T05:58:02;19.67;;;2.63;;
24859;SDS011;12936;52.006;4.350;2022-12-29T06:00:29;18.57;;;2.53;;
24859;SDS011;12936;52.006;4.350;2022-12-29T06:02:58;18.00;;;2.50;;
24859;SDS011;12936;52.006;4.350;2022-12-29T06:05:26;20.90;;;2.73;;
24859;SDS011;12936;52.006;4.350;2022-12-29T06:07:56;26.40;;;3.43;;
24859;SDS011;12936;52.006;4.350;2022-12-29T06:10:24;13.53;;;1.77;;
24859;SDS011;12936;52.006;4.350;2022-12-29T06:12:52;25.70;;;3.97;;
24859;SDS011;12936;52.006;4.350;2022-12-29T06:15:20;18.07;;;2.50;;
24859;SDS011;12936;52.006;4.350;2022-12-29T06:17:48;18.77;;;3.03;;
24859;SDS011;12936;52.006;4.350;2022-12-29T06:20:16;23.10;;;3.77;;
24859;SDS011;12936;52.006;4.350;2022-12-29T06:22:44;25.73;;;2.90;;
24859;SDS011;12936;52.006;4.350;2022-12-29T06:25:14;26.03;;;3.30;;
24859;SDS011;12936;52.006;4.350;2022-12-29T06:27:42;24.90;;;3.50;;
24859;SDS011;12936;52.006;4.350;2022-12-29T06:30:11;33.10;;;3.27;;
24859;SDS011;12936;52.006;4.350;2022-12-29T06:32:41;25.57;;;2.97;;
24859;SDS011;12936;52.006;4.350;2022-12-29T06:35:09;22.03;;;2.90;;
24859;SDS011;12936;52.006;4.350;2022-12-29T06:37:37;25.03;;;3.17;;
24859;SDS011;12936;52.006;4.350;2022-12-29T06:40:05;28.53;;;3.17;;
24859;SDS011;12936;52.006;4.350;2022-12-29T06:42:35;31.10;;;3.80;;
24859;SDS011;12936;52.006;4.350;2022-12-29T06:45:04;18.13;;;3.63;;
24859;SDS011;12936;52.006;4.350;2022-12-29T06:47:33;27.73;;;2.70;;
24859;SDS011;12936;52.006;4.350;2022-12-29T06:50:02;29.33;;;3.07;;
24859;SDS011;12936;52.006;4.350;2022-12-29T06:52:30;21.97;;;3.40;;
24859;SDS011;12936;52.006;4.350;2022-12-29T06:54:58;22.00;;;2.67;;
24859;SDS011;12936;52.006;4.350;2022-12-29T06:57:26;17.83;;;2.37;;
24859;SDS011;12936;52.006;4.350;2022-12-29T06:59:56;26.10;;;2.57;;
24859;SDS011;12936;52.006;4.350;2022-12-29T07:02:24;16.37;;;2.70;;
24859;SDS011;12936;52.006;4.350;2022-12-29T07:04:52;17.03;;;2.07;;
24859;SDS011;12936;52.006;4.350;2022-12-29T07:07:20;16.43;;;2.20;;
24859;SDS011;12936;52.006;4.350;2022-12-29T07:09:48;9.63;;;2.07;;
24859;SDS011;12936;52.006;4.350;2022-12-29T07:12:16;16.90;;;2.10;;
24859;SDS011;12936;52.006;4.350;2022-12-29T07:14:45;15.17;;;2.27;;
24859;SDS011;12936;52.006;4.350;2022-12-29T07:17:14;23.17;;;2.30;;
24859;SDS011;12936;52.006;4.350;2022-12-29T07:19:42;12.20;;;2.23;;
24859;SDS011;12936;52.006;4.350;2022-12-29T07:22:11;18.77;;;2.30;;
24859;SDS011;12936;52.006;4.350;2022-12-29T07:24:39;14.73;;;2.30;;
24859;SDS011;12936;52.006;4.350;2022-12-29T07:27:07;15.77;;;2.03;;
24859;SDS011;12936;52.006;4.350;2022-12-29T07:29:36;20.70;;;2.80;;
24859;SDS011;12936;52.006;4.350;2022-12-29T07:32:04;14.87;;;2.07;;
24859;SDS011;12936;52.006;4.350;2022-12-29T07:34:34;20.50;;;2.03;;
24859;SDS011;12936;52.006;4.350;2022-12-29T07:37:01;23.83;;;3.03;;
24859;SDS011;12936;52.006;4.350;2022-12-29T07:39:29;16.03;;;3.30;;
24859;SDS011;12936;52.006;4.350;2022-12-29T07:41:57;19.43;;;2.63;;
24859;SDS011;12936;52.006;4.350;2022-12-29T07:44:30;20.13;;;3.00;;
24859;SDS011;12936;52.006;4.350;2022-12-29T07:46:58;19.50;;;2.67;;
24859;SDS011;12936;52.006;4.350;2022-12-29T07:49:27;16.57;;;2.20;;
24859;SDS011;12936;52.006;4.350;2022-12-29T07:51:56;19.33;;;2.47;;
24859;SDS011;12936;52.006;4.350;2022-12-29T07:54:25;26.37;;;3.00;;
24859;SDS011;12936;52.006;4.350;2022-12-29T07:56:53;33.17;;;4.17;;
24859;SDS011;12936;52.006;4.350;2022-12-29T07:59:21;22.57;;;2.57;;
24859;SDS011;12936;52.006;4.350;2022-12-29T08:01:49;25.37;;;3.73;;
24859;SDS011;12936;52.006;4.350;2022-12-29T08:04:17;22.40;;;3.33;;
24859;SDS011;12936;52.006;4.350;2022-12-29T08:06:45;19.77;;;2.27;;
24859;SDS011;12936;52.006;4.350;2022-12-29T08:09:15;19.33;;;2.57;;
24859;SDS011;12936;52.006;4.350;2022-12-29T08:11:49;21.53;;;2.57;;
24859;SDS011;12936;52.006;4.350;2022-12-29T08:14:17;18.63;;;2.00;;
24859;SDS011;12936;52.006;4.350;2022-12-29T08:16:46;21.77;;;2.63;;
24859;SDS011;12936;52.006;4.350;2022-12-29T08:19:14;27.73;;;2.90;;
24859;SDS011;12936;52.006;4.350;2022-12-29T08:21:42;14.13;;;2.50;;
24859;SDS011;12936;52.006;4.350;2022-12-29T08:24:10;18.80;;;2.93;;
24859;SDS011;12936;52.006;4.350;2022-12-29T08:26:40;17.63;;;2.67;;
24859;SDS011;12936;52.006;4.350;2022-12-29T08:29:08;19.00;;;2.67;;
24859;SDS011;12936;52.006;4.350;2022-12-29T08:31:36;28.03;;;3.73;;
24859;SDS011;12936;52.006;4.350;2022-12-29T08:34:04;28.50;;;3.57;;
24859;SDS011;12936;52.006;4.350;2022-12-29T08:36:32;18.23;;;2.70;;
24859;SDS011;12936;52.006;4.350;2022-12-29T08:39:00;16.50;;;3.07;;
24859;SDS011;12936;52.006;4.350;2022-12-29T08:41:28;20.37;;;3.93;;
24859;SDS011;12936;52.006;4.350;2022-12-29T08:43:58;16.93;;;2.70;;
24859;SDS011;12936;52.006;4.350;2022-12-29T08:46:26;15.47;;;2.17;;
24859;SDS011;12936;52.006;4.350;2022-12-29T08:48:54;22.93;;;2.97;;
24859;SDS011;12936;52.006;4.350;2022-12-29T08:51:22;11.50;;;1.83;;
24859;SDS011;12936;52.006;4.350;2022-12-29T08:53:50;23.23;;;3.23;;
24859;SDS011;12936;52.006;4.350;2022-12-29T08:56:19;22.27;;;2.97;;
24859;SDS011;12936;52.006;4.350;2022-12-29T08:58:47;24.83;;;3.00;;
24859;SDS011;12936;52.006;4.350;2022-12-29T09:01:16;20.47;;;3.03;;
24859;SDS011;12936;52.006;4.350;2022-12-29T09:03:45;13.97;;;2.33;;
24859;SDS011;12936;52.006;4.350;2022-12-29T09:06:33;23.63;;;3.03;;
24859;SDS011;12936;52.006;4.350;2022-12-29T09:09:06;18.33;;;3.23;;
24859;SDS011;12936;52.006;4.350;2022-12-29T09:11:34;26.10;;;3.13;;
24859;SDS011;12936;52.006;4.350;2022-12-29T09:14:02;17.13;;;3.23;;
24859;SDS011;12936;52.006;4.350;2022-12-29T09:16:31;20.53;;;3.03;;
24859;SDS011;12936;52.006;4.350;2022-12-29T09:19:00;19.87;;;2.47;;
24859;SDS011;12936;52.006;4.350;2022-12-29T09:21:28;18.77;;;2.20;;
24859;SDS011;12936;52.006;4.350;2022-12-29T09:23:56;17.80;;;3.00;;
24859;SDS011;12936;52.006;4.350;2022-12-29T09:26:24;18.63;;;2.97;;
24859;SDS011;12936;52.006;4.350;2022-12-29T09:28:52;23.67;;;3.10;;
24859;SDS011;12936;52.006;4.350;2022-12-29T09:31:20;19.67;;;2.80;;
24859;SDS011;12936;52.006;4.350;2022-12-29T09:33:50;24.70;;;3.60;;
24859;SDS011;12936;52.006;4.350;2022-12-29T09:36:18;24.40;;;3.50;;
24859;SDS011;12936;52.006;4.350;2022-12-29T09:38:46;20.57;;;2.93;;
24859;SDS011;12936;52.006;4.350;2022-12-29T09:41:15;33.97;;;3.27;;
24859;SDS011;12936;52.006;4.350;2022-12-29T09:43:54;18.90;;;2.97;;
24859;SDS011;12936;52.006;4.350;2022-12-29T09:46:32;23.00;;;3.60;;
24859;SDS011;12936;52.006;4.350;2022-12-29T09:49:11;19.43;;;3.57;;
24859;SDS011;12936;52.006;4.350;2022-12-29T09:51:48;25.57;;;3.40;;
24859;SDS011;12936;52.006;4.350;2022-12-29T09:54:37;26.00;;;4.27;;
24859;SDS011;12936;52.006;4.350;2022-12-29T09:57:14;27.93;;;4.97;;
24859;SDS011;12936;52.006;4.350;2022-12-29T09:59:50;22.83;;;3.60;;
24859;SDS011;12936;52.006;4.350;2022-12-29T10:02:26;25.53;;;4.20;;
24859;SDS011;12936;52.006;4.350;2022-12-29T10:05:03;20.57;;;3.17;;
24859;SDS011;12936;52.006;4.350;2022-12-29T10:07:40;33.50;;;4.80;;
24859;SDS011;12936;52.006;4.350;2022-12-29T10:10:18;30.37;;;4.10;;
24859;SDS011;12936;52.006;4.350;2022-12-29T10:12:56;30.23;;;4.13;;
24859;SDS011;12936;52.006;4.350;2022-12-29T10:15:38;34.67;;;5.10;;
24859;SDS011;12936;52.006;4.350;2022-12-29T10:18:27;28.03;;;3.60;;
24859;SDS011;12936;52.006;4.350;2022-12-29T10:21:15;32.57;;;4.90;;
24859;SDS011;12936;52.006;4.350;2022-12-29T10:23:50;31.23;;;3.97;;
24859;SDS011;12936;52.006;4.350;2022-12-29T10:26:21;34.27;;;5.87;;
24859;SDS011;12936;52.006;4.350;2022-12-29T10:28:54;25.70;;;3.57;;
24859;SDS011;12936;52.006;4.350;2022-12-29T10:31:25;28.63;;;3.77;;
24859;SDS011;12936;52.006;4.350;2022-12-29T10:34:00;25.77;;;3.63;;
24859;SDS011;12936;52.006;4.350;2022-12-29T10:36:35;29.60;;;4.07;;
24859;SDS011;12936;52.006;4.350;2022-12-29T10:39:11;27.00;;;3.40;;
24859;SDS011;12936;52.006;4.350;2022-12-29T10:41:46;22.93;;;3.67;;
24859;SDS011;12936;52.006;4.350;2022-12-29T10:44:18;15.00;;;2.10;;
24859;SDS011;12936;52.006;4.350;2022-12-29T10:46:53;16.93;;;2.53;;
24859;SDS011;12936;52.006;4.350;2022-12-29T10:49:24;29.47;;;4.23;;
24859;SDS011;12936;52.006;4.350;2022-12-29T10:51:58;26.47;;;3.73;;
24859;SDS011;12936;52.006;4.350;2022-12-29T10:54:30;29.37;;;4.20;;
24859;SDS011;12936;52.006;4.350;2022-12-29T10:57:05;19.43;;;3.10;;
24859;SDS011;12936;52.006;4.350;2022-12-29T10:59:37;16.97;;;2.27;;
24859;SDS011;12936;52.006;4.350;2022-12-29T11:02:13;37.03;;;4.40;;
24859;SDS011;12936;52.006;4.350;2022-12-29T11:05:00;22.60;;;4.10;;
24859;SDS011;12936;52.006;4.350;2022-12-29T11:07:35;20.33;;;3.33;;
24859;SDS011;12936;52.006;4.350;2022-12-29T11:10:16;22.00;;;3.03;;
24859;SDS011;12936;52.006;4.350;2022-12-29T11:12:56;20.77;;;3.77;;
24859;SDS011;12936;52.006;4.350;2022-12-29T11:15:26;15.30;;;2.20;;
24859;SDS011;12936;52.006;4.350;2022-12-29T11:17:56;19.27;;;2.53;;
24859;SDS011;12936;52.006;4.350;2022-12-29T11:20:27;16.73;;;2.27;;
24859;SDS011;12936;52.006;4.350;2022-12-29T11:22:59;22.87;;;3.17;;
24859;SDS011;12936;52.006;4.350;2022-12-29T11:25:28;24.40;;;3.00;;
24859;SDS011;12936;52.006;4.350;2022-12-29T11:27:57;21.33;;;3.40;;
24859;SDS011;12936;52.006;4.350;2022-12-29T11:30:28;18.27;;;3.17;;
24859;SDS011;12936;52.006;4.350;2022-12-29T11:32:57;14.60;;;2.50;;
24859;SDS011;12936;52.006;4.350;2022-12-29T11:35:31;12.53;;;1.90;;
24859;SDS011;12936;52.006;4.350;2022-12-29T11:38:03;18.13;;;2.67;;
24859;SDS011;12936;52.006;4.350;2022-12-29T11:40:31;6.23;;;1.13;;
24859;SDS011;12936;52.006;4.350;2022-12-29T11:43:05;19.90;;;2.20;;
24859;SDS011;12936;52.006;4.350;2022-12-29T11:45:33;10.57;;;1.60;;
24859;SDS011;12936;52.006;4.350;2022-12-29T11:48:06;11.10;;;1.70;;
24859;SDS011;12936;52.006;4.350;2022-12-29T11:50:36;15.33;;;2.00;;
24859;SDS011;12936;52.006;4.350;2022-12-29T11:53:13;20.23;;;2.63;;
24859;SDS011;12936;52.006;4.350;2022-12-29T11:55:50;17.53;;;2.23;;
24859;SDS011;12936;52.006;4.350;2022-12-29T11:58:20;14.43;;;2.77;;
24859;SDS011;12936;52.006;4.350;2022-12-29T12:00:48;21.97;;;3.50;;
24859;SDS011;12936;52.006;4.350;2022-12-29T12:03:18;27.20;;;3.63;;
24859;SDS011;12936;52.006;4.350;2022-12-29T12:05:49;21.47;;;3.30;;
24859;SDS011;12936;52.006;4.350;2022-12-29T12:08:33;20.80;;;2.97;;
24859;SDS011;12936;52.006;4.350;2022-12-29T12:11:06;24.23;;;2.90;;
24859;SDS011;12936;52.006;4.350;2022-12-29T12:13:39;23.10;;;2.73;;
24859;SDS011;12936;52.006;4.350;2022-12-29T12:16:15;18.70;;;2.20;;
24859;SDS011;12936;52.006;4.350;2022-12-29T12:18:46;19.70;;;2.40;;
24859;SDS011;12936;52.006;4.350;2022-12-29T12:21:20;18.33;;;2.43;;
24859;SDS011;12936;52.006;4.350;2022-12-29T12:26:58;17.90;;;3.17;;
24859;SDS011;12936;52.006;4.350;2022-12-29T12:29:33;14.13;;;2.00;;
24859;SDS011;12936;52.006;4.350;2022-12-29T12:32:08;14.30;;;2.60;;
24859;SDS011;12936;52.006;4.350;2022-12-29T12:34:42;19.97;;;2.87;;
24859;SDS011;12936;52.006;4.350;2022-12-29T12:43:08;14.93;;;2.10;;
24859;SDS011;12936;52.006;4.350;2022-12-29T12:46:01;14.03;;;2.50;;
24859;SDS011;12936;52.006;4.350;2022-12-29T12:48:54;22.73;;;2.90;;
24859;SDS011;12936;52.006;4.350;2022-12-29T12:51:34;23.13;;;2.83;;
24859;SDS011;12936;52.006;4.350;2022-12-29T12:54:13;19.53;;;2.30;;
24859;SDS011;12936;52.006;4.350;2022-12-29T12:56:55;23.00;;;3.07;;
24859;SDS011;12936;52.006;4.350;2022-12-29T12:59:36;22.20;;;2.97;;
24859;SDS011;12936;52.006;4.350;2022-12-29T13:02:15;14.77;;;3.17;;
24859;SDS011;12936;52.006;4.350;2022-12-29T13:08:01;15.60;;;2.20;;
24859;SDS011;12936;52.006;4.350;2022-12-29T13:10:41;12.17;;;2.40;;
24859;SDS011;12936;52.006;4.350;2022-12-29T13:13:28;19.87;;;2.53;;
24859;SDS011;12936;52.006;4.350;2022-12-29T13:16:17;18.57;;;2.73;;
24859;SDS011;12936;52.006;4.350;2022-12-29T13:18:56;19.73;;;2.83;;
24859;SDS011;12936;52.006;4.350;2022-12-29T13:21:33;18.17;;;3.03;;
24859;SDS011;12936;52.006;4.350;2022-12-29T13:24:16;26.13;;;3.80;;
24859;SDS011;12936;52.006;4.350;2022-12-29T13:26:50;14.77;;;2.00;;
24859;SDS011;12936;52.006;4.350;2022-12-29T13:29:23;12.83;;;1.90;;
24859;SDS011;12936;52.006;4.350;2022-12-29T13:32:02;18.87;;;2.57;;
24859;SDS011;12936;52.006;4.350;2022-12-29T13:34:46;16.37;;;2.53;;
24859;SDS011;12936;52.006;4.350;2022-12-29T13:37:21;9.63;;;2.37;;
24859;SDS011;12936;52.006;4.350;2022-12-29T13:39:55;3.43;;;1.20;;
24859;SDS011;12936;52.006;4.350;2022-12-29T13:42:27;15.33;;;2.13;;
24859;SDS011;12936;52.006;4.350;2022-12-29T13:44:58;13.73;;;1.73;;
24859;SDS011;12936;52.006;4.350;2022-12-29T13:47:31;10.77;;;2.40;;
24859;SDS011;12936;52.006;4.350;2022-12-29T13:50:05;13.60;;;1.90;;
24859;SDS011;12936;52.006;4.350;2022-12-29T13:52:45;13.60;;;2.10;;
24859;SDS011;12936;52.006;4.350;2022-12-29T13:55:24;12.23;;;2.00;;
24859;SDS011;12936;52.006;4.350;2022-12-29T13:57:59;16.43;;;2.10;;
24859;SDS011;12936;52.006;4.350;2022-12-29T14:00:34;14.97;;;2.40;;
24859;SDS011;12936;52.006;4.350;2022-12-29T14:03:23;14.67;;;2.53;;
24859;SDS011;12936;52.006;4.350;2022-12-29T14:06:12;16.80;;;2.50;;
24859;SDS011;12936;52.006;4.350;2022-12-29T14:08:46;21.17;;;3.10;;
24859;SDS011;12936;52.006;4.350;2022-12-29T14:11:16;16.03;;;2.63;;
24859;SDS011;12936;52.006;4.350;2022-12-29T14:13:47;16.10;;;2.50;;
24859;SDS011;12936;52.006;4.350;2022-12-29T14:16:28;15.90;;;2.63;;
24859;SDS011;12936;52.006;4.350;2022-12-29T14:21:50;10.67;;;1.80;;
24859;SDS011;12936;52.006;4.350;2022-12-29T14:33:17;13.40;;;2.47;;
24859;SDS011;12936;52.006;4.350;2022-12-29T14:35:48;19.47;;;2.63;;
24859;SDS011;12936;52.006;4.350;2022-12-29T14:38:19;12.13;;;1.50;;
24859;SDS011;12936;52.006;4.350;2022-12-29T14:40:50;14.07;;;2.13;;
24859;SDS011;12936;52.006;4.350;2022-12-29T14:43:23;20.80;;;2.87;;
24859;SDS011;12936;52.006;4.350;2022-12-29T14:45:54;17.63;;;2.00;;
24859;SDS011;12936;52.006;4.350;2022-12-29T14:48:34;16.63;;;2.23;;
24859;SDS011;12936;52.006;4.350;2022-12-29T14:51:19;15.30;;;2.23;;
24859;SDS011;12936;52.006;4.350;2022-12-29T14:53:54;16.60;;;2.27;;
24859;SDS011;12936;52.006;4.350;2022-12-29T14:56:24;21.27;;;2.10;;
24859;SDS011;12936;52.006;4.350;2022-12-29T14:58:55;17.93;;;2.37;;
24859;SDS011;12936;52.006;4.350;2022-12-29T15:01:28;15.53;;;2.30;;
24859;SDS011;12936;52.006;4.350;2022-12-29T15:04:13;15.67;;;2.17;;
24859;SDS011;12936;52.006;4.350;2022-12-29T15:06:44;19.20;;;2.07;;
24859;SDS011;12936;52.006;4.350;2022-12-29T15:09:17;20.93;;;2.03;;
24859;SDS011;12936;52.006;4.350;2022-12-29T15:11:52;9.07;;;1.63;;
24859;SDS011;12936;52.006;4.350;2022-12-29T15:14:32;16.90;;;2.20;;
24859;SDS011;12936;52.006;4.350;2022-12-29T15:17:09;17.93;;;2.60;;
24859;SDS011;12936;52.006;4.350;2022-12-29T15:19:40;17.93;;;2.40;;
24859;SDS011;12936;52.006;4.350;2022-12-29T15:22:08;14.53;;;2.40;;
24859;SDS011;12936;52.006;4.350;2022-12-29T15:24:40;18.67;;;2.30;;
24859;SDS011;12936;52.006;4.350;2022-12-29T15:27:10;17.20;;;2.57;;
24859;SDS011;12936;52.006;4.350;2022-12-29T15:29:42;22.47;;;2.43;;
24859;SDS011;12936;52.006;4.350;2022-12-29T15:32:19;21.93;;;2.43;;
24859;SDS011;12936;52.006;4.350;2022-12-29T15:34:50;23.23;;;2.80;;
24859;SDS011;12936;52.006;4.350;2022-12-29T15:37:23;22.60;;;3.90;;
24859;SDS011;12936;52.006;4.350;2022-12-29T15:39:56;18.97;;;2.97;;